Time;durP1;ratioP1;P1;durP2;ratioP2;P2;SDS_P1;SDS_P2;PMS_P1;PMS_P2;Temp;Humidity;BMP_temperature;BMP_pressure;BME280_temperature;BME280_humidity;BME280_pressure;Samples;Min_cycle;Max_cycle;Signal;HPM_P1;HPM_P2
2024/04/01 00:01:22;;;;;;;0.75;0.40;;;19.60;84.20;;;;;;5032370;28;20064;-34
2024/04/01 00:03:48;;;;;;;1.50;0.77;;;19.60;84.20;;;;;;5032381;28;20034;-33
2024/04/01 00:06:14;;;;;;;1.65;0.70;;;19.60;84.20;;;;;;5032453;28;20469;-32
2024/04/01 00:08:39;;;;;;;1.48;0.70;;;19.60;84.20;;;;;;5032548;28;20021;-33
2024/04/01 00:11:05;;;;;;;3.05;0.80;;;19.60;84.20;;;;;;5032210;28;20018;-33
2024/04/01 00:13:31;;;;;;;1.83;0.60;;;19.60;84.20;;;;;;5032512;28;20033;-32
2024/04/01 00:15:56;;;;;;;1.15;0.68;;;19.60;84.20;;;;;;5031915;28;20033;-33
2024/04/01 00:18:22;;;;;;;1.17;0.60;;;19.60;84.30;;;;;;5032256;28;20029;-33
2024/04/01 00:20:58;;;;;;;2.15;0.80;;;19.60;84.20;;;;;;5032183;28;20026;-33
2024/04/01 00:23:24;;;;;;;1.92;0.77;;;19.60;84.30;;;;;;5030997;28;20033;-32
2024/04/01 00:25:50;;;;;;;1.27;0.57;;;19.50;84.20;;;;;;5032073;28;20022;-33
2024/04/01 00:28:16;;;;;;;2.15;0.77;;;19.50;84.20;;;;;;5031973;28;20022;-34
2024/04/01 00:30:41;;;;;;;1.10;0.60;;;19.50;84.30;;;;;;5031911;28;20075;-32
2024/04/01 00:33:09;;;;;;;1.58;0.70;;;19.50;84.30;;;;;;5032144;28;20534;-33
2024/04/01 00:35:41;;;;;;;1.60;0.57;;;19.50;84.30;;;;;;5031993;28;20100;-33
2024/04/01 00:38:07;;;;;;;1.55;0.70;;;19.50;84.40;;;;;;5031933;28;20033;-32
2024/04/01 00:40:35;;;;;;;1.20;0.60;;;19.50;84.30;;;;;;5031705;28;20547;-33
2024/04/01 00:43:08;;;;;;;1.42;0.50;;;19.50;84.30;;;;;;5032394;28;20026;-32
2024/04/01 00:45:38;;;;;;;1.60;0.80;;;19.50;84.40;;;;;;5031821;28;20029;-34
2024/04/01 00:48:05;;;;;;;0.98;0.60;;;19.50;84.40;;;;;;5031786;28;20545;-33
2024/04/01 00:50:31;;;;;;;2.05;0.63;;;19.50;84.40;;;;;;5031763;28;20468;-34
2024/04/01 00:52:59;;;;;;;1.10;0.50;;;19.50;84.40;;;;;;5031945;28;20063;-33
2024/04/01 00:55:25;;;;;;;1.50;0.50;;;19.50;84.40;;;;;;5031686;28;20243;-34
2024/04/01 00:57:52;;;;;;;1.50;0.70;;;19.50;84.40;;;;;;5031916;28;20036;-32
2024/04/01 01:00:18;;;;;;;1.60;0.70;;;19.50;84.40;;;;;;5031711;28;20373;-33
2024/04/01 01:02:44;;;;;;;1.10;0.60;;;19.50;84.40;;;;;;5031596;28;20035;-32
2024/04/01 01:05:15;;;;;;;0.95;0.45;;;19.50;84.40;;;;;;5031551;28;20032;-33
2024/04/01 01:07:44;;;;;;;1.48;0.63;;;19.50;84.50;;;;;;5031732;28;20029;-32
2024/04/01 01:10:10;;;;;;;0.93;0.52;;;19.50;84.50;;;;;;5031828;28;20025;-33
2024/04/01 01:12:40;;;;;;;1.75;0.50;;;19.50;84.40;;;;;;5031723;28;20019;-32
2024/04/01 01:15:11;;;;;;;0.82;0.40;;;19.50;84.50;;;;;;5031816;28;20018;-34
2024/04/01 01:17:38;;;;;;;1.00;0.50;;;19.50;84.50;;;;;;5031799;28;20026;-33
2024/04/01 01:20:11;;;;;;;1.10;0.70;;;19.50;84.50;;;;;;5031704;28;20037;-33
2024/04/01 01:22:37;;;;;;;1.15;0.70;;;19.50;84.50;;;;;;5031417;28;20046;-33
2024/04/01 01:25:07;;;;;;;1.98;0.70;;;19.50;84.50;;;;;;5031465;28;20018;-33
2024/04/01 01:27:34;;;;;;;1.00;0.70;;;19.50;84.50;;;;;;5031495;28;20024;-32
2024/04/01 01:30:01;;;;;;;2.25;0.55;;;19.50;84.60;;;;;;5031466;28;20025;-33
2024/04/01 01:32:27;;;;;;;1.00;0.63;;;19.50;84.50;;;;;;5031558;28;20025;-32
2024/04/01 01:34:53;;;;;;;1.20;0.30;;;19.50;85.40;;;;;;5031398;28;20396;-33
2024/04/01 01:37:19;;;;;;;1.00;0.52;;;19.50;84.60;;;;;;5031438;28;20040;-33
2024/04/01 01:39:45;;;;;;;1.60;0.52;;;19.40;84.50;;;;;;5031502;28;20025;-33
2024/04/01 01:42:10;;;;;;;2.58;0.43;;;19.40;84.50;;;;;;5031423;28;20056;-32
2024/04/01 01:44:36;;;;;;;1.33;0.45;;;19.40;84.60;;;;;;5031378;28;20091;-34
2024/04/01 01:47:02;;;;;;;0.98;0.55;;;19.50;84.60;;;;;;5031264;28;20021;-33
2024/04/01 01:49:27;;;;;;;1.27;0.70;;;19.40;84.70;;;;;;5031248;28;20021;-33
2024/04/01 01:51:53;;;;;;;2.42;0.65;;;19.40;84.60;;;;;;5031933;28;20057;-33
2024/04/01 01:54:18;;;;;;;1.33;0.50;;;19.40;84.60;;;;;;5035266;28;20034;-34
2024/04/01 01:56:44;;;;;;;2.03;0.50;;;19.40;84.70;;;;;;5034669;28;20132;-32
2024/04/01 01:59:10;;;;;;;2.67;0.50;;;19.40;84.70;;;;;;5035040;28;20030;-32
2024/04/01 02:01:35;;;;;;;1.55;0.45;;;19.40;84.70;;;;;;5034669;28;20076;-34
2024/04/01 02:04:01;;;;;;;2.47;0.68;;;19.40;84.70;;;;;;5034591;28;20108;-33
2024/04/01 02:06:26;;;;;;;0.90;0.50;;;19.40;84.70;;;;;;5034450;28;20105;-34
2024/04/01 02:08:52;;;;;;;1.40;0.60;;;19.40;84.70;;;;;;5034605;28;20029;-33
2024/04/01 02:11:18;;;;;;;1.38;0.50;;;19.40;84.70;;;;;;5034700;28;20022;-34
2024/04/01 02:13:44;;;;;;;2.30;0.40;;;19.40;84.70;;;;;;5034660;28;20087;-34
2024/04/01 02:16:10;;;;;;;2.80;0.55;;;19.40;84.70;;;;;;5034768;28;20033;-33
2024/04/01 02:18:36;;;;;;;1.17;0.47;;;19.40;84.70;;;;;;5033085;28;20033;-33
2024/04/01 02:21:03;;;;;;;0.95;0.60;;;19.40;84.70;;;;;;5034355;28;20028;-33
2024/04/01 02:23:32;;;;;;;1.83;0.52;;;19.40;84.70;;;;;;5034458;28;20040;-33
2024/04/01 02:26:04;;;;;;;0.65;0.40;;;19.40;84.70;;;;;;5034581;28;20024;-33
2024/04/01 02:28:32;;;;;;;1.23;0.38;;;19.40;84.80;;;;;;5034299;28;20388;-34
2024/04/01 02:30:59;;;;;;;1.02;0.70;;;19.40;84.80;;;;;;5034114;28;20029;-33
2024/04/01 02:33:26;;;;;;;1.08;0.57;;;19.40;84.80;;;;;;5034116;28;20029;-32
2024/04/01 02:35:51;;;;;;;1.45;0.45;;;19.40;84.80;;;;;;5034113;28;20034;-33
2024/04/01 02:38:18;;;;;;;1.55;0.55;;;19.40;84.80;;;;;;5034030;28;20068;-32
2024/04/01 02:40:44;;;;;;;2.45;0.60;;;19.40;84.80;;;;;;5034061;28;20030;-32
2024/04/01 02:43:10;;;;;;;1.55;0.70;;;19.40;84.80;;;;;;5034111;28;20033;-34
2024/04/01 02:45:36;;;;;;;1.02;0.40;;;19.40;84.90;;;;;;5033898;28;20029;-34
2024/04/01 02:48:01;;;;;;;1.08;0.47;;;19.40;84.90;;;;;;5033814;28;20130;-32
2024/04/01 02:50:27;;;;;;;0.93;0.40;;;19.40;84.90;;;;;;5033811;28;20028;-32
2024/04/01 02:52:53;;;;;;;0.95;0.60;;;19.30;84.90;;;;;;5033913;28;20112;-33
2024/04/01 02:55:19;;;;;;;1.60;0.70;;;19.30;84.90;;;;;;5033609;28;20101;-33
2024/04/01 02:57:45;;;;;;;1.95;0.40;;;19.30;84.90;;;;;;5033739;28;20022;-34
2024/04/01 03:00:17;;;;;;;1.00;0.50;;;19.30;85.00;;;;;;5033604;28;20028;-34
2024/04/01 03:02:47;;;;;;;0.93;0.45;;;19.30;85.00;;;;;;5033555;28;20013;-34
2024/04/01 03:05:13;;;;;;;1.00;0.60;;;19.30;85.00;;;;;;5032658;28;20026;-33
2024/04/01 03:07:40;;;;;;;1.25;0.40;;;19.30;85.00;;;;;;5033635;28;20510;-33
2024/04/01 03:10:06;;;;;;;2.50;0.65;;;19.30;85.00;;;;;;5033721;28;20026;-33
2024/04/01 03:12:32;;;;;;;1.35;0.52;;;19.30;85.00;;;;;;5033855;28;20384;-33
2024/04/01 03:14:58;;;;;;;1.35;0.40;;;19.30;85.70;;;;;;5033254;28;20026;-31
2024/04/01 03:17:29;;;;;;;0.93;0.40;;;19.30;85.00;;;;;;5033257;28;20124;-33
2024/04/01 03:19:55;;;;;;;1.77;0.50;;;19.30;85.00;;;;;;5033254;28;20112;-33
2024/04/01 03:22:22;;;;;;;1.58;0.57;;;19.30;85.00;;;;;;5033291;28;20025;-34
2024/04/01 03:24:47;;;;;;;0.90;0.32;;;19.30;85.00;;;;;;5033159;28;20112;-33
2024/04/01 03:27:13;;;;;;;1.40;0.60;;;19.30;85.00;;;;;;5032868;28;20056;-33
2024/04/01 03:29:38;;;;;;;1.00;0.55;;;19.30;85.00;;;;;;5033080;28;20160;-32
2024/04/01 03:32:05;;;;;;;1.52;0.45;;;19.30;85.00;;;;;;5033034;28;20045;-32
2024/04/01 03:34:30;;;;;;;2.17;0.52;;;19.30;85.00;;;;;;5033022;28;20160;-33
2024/04/01 03:36:58;;;;;;;1.27;0.40;;;19.30;85.00;;;;;;5032853;28;20065;-33
2024/04/01 03:39:24;;;;;;;0.57;0.32;;;19.30;85.10;;;;;;5031572;28;20029;-33
2024/04/01 03:41:50;;;;;;;0.68;0.50;;;19.30;85.10;;;;;;5032654;28;20439;-33
2024/04/01 03:44:15;;;;;;;0.52;0.32;;;19.30;85.10;;;;;;5032854;28;20052;-32
2024/04/01 03:46:41;;;;;;;1.45;0.55;;;19.30;85.20;;;;;;5032831;28;20040;-33
2024/04/01 03:49:07;;;;;;;1.27;0.45;;;19.30;85.20;;;;;;5032706;28;20017;-32
2024/04/01 03:51:33;;;;;;;1.58;0.55;;;19.30;85.20;;;;;;5032788;28;20028;-32
2024/04/01 03:53:59;;;;;;;1.17;0.52;;;19.30;85.20;;;;;;5032752;28;20026;-33
2024/04/01 03:56:24;;;;;;;0.95;0.50;;;19.20;85.10;;;;;;5032391;28;20079;-33
2024/04/01 03:58:50;;;;;;;1.05;0.40;;;19.30;85.30;;;;;;5032534;28;20056;-33
2024/04/01 04:01:16;;;;;;;0.73;0.40;;;19.30;85.20;;;;;;5032521;28;20079;-34
2024/04/01 04:03:42;;;;;;;1.63;0.50;;;19.30;85.20;;;;;;5032741;28;20025;-32
2024/04/01 04:06:11;;;;;;;0.98;0.32;;;19.30;85.20;;;;;;5032494;28;20021;-33
2024/04/01 04:08:37;;;;;;;0.47;0.30;;;19.30;85.20;;;;;;5032305;28;20072;-33
2024/04/01 04:11:07;;;;;;;2.22;0.50;;;19.30;85.20;;;;;;5032404;28;20368;-32
2024/04/01 04:13:34;;;;;;;1.30;0.50;;;19.30;85.20;;;;;;5032396;28;20090;-34
2024/04/01 04:16:00;;;;;;;1.27;0.55;;;19.30;85.20;;;;;;5031874;28;20029;-33
2024/04/01 04:18:26;;;;;;;1.23;0.40;;;19.20;85.20;;;;;;5032359;28;20148;-32
2024/04/01 04:20:54;;;;;;;1.80;0.38;;;19.20;85.20;;;;;;5032173;28;20105;-32
2024/04/01 04:23:24;;;;;;;0.82;0.30;;;19.30;85.20;;;;;;5032195;28;20029;-33
2024/04/01 04:25:51;;;;;;;1.38;0.40;;;19.20;85.20;;;;;;5032101;28;20018;-33
2024/04/01 04:28:17;;;;;;;0.43;0.32;;;19.20;85.20;;;;;;5032130;28;20022;-33
2024/04/01 04:30:43;;;;;;;3.03;0.55;;;19.20;85.20;;;;;;5032258;28;20040;-33
2024/04/01 04:33:08;;;;;;;1.48;0.35;;;19.20;85.20;;;;;;5032205;28;20039;-33
2024/04/01 04:35:34;;;;;;;1.88;0.45;;;19.20;85.20;;;;;;5031905;28;20091;-34
2024/04/01 04:38:00;;;;;;;2.30;0.70;;;19.20;85.30;;;;;;5032074;28;20029;-32
2024/04/01 04:40:27;;;;;;;0.70;0.40;;;19.20;85.20;;;;;;5032117;28;20025;-33
2024/04/01 04:42:53;;;;;;;1.25;0.50;;;19.20;85.30;;;;;;5031909;28;20041;-33
2024/04/01 04:45:22;;;;;;;1.08;0.40;;;19.20;86.00;;;;;;5031777;28;20022;-33
2024/04/01 04:47:51;;;;;;;1.08;0.38;;;19.20;85.30;;;;;;5031854;28;20018;-33
2024/04/01 04:50:21;;;;;;;1.42;0.40;;;19.20;85.30;;;;;;5031799;28;20021;-33
2024/04/01 04:52:47;;;;;;;0.50;0.40;;;19.20;85.30;;;;;;5031888;28;20251;-32
2024/04/01 04:55:13;;;;;;;0.30;0.20;;;19.20;85.30;;;;;;5031752;28;20025;-33
2024/04/01 04:57:38;;;;;;;1.33;0.60;;;19.20;86.10;;;;;;5031726;28;20031;-32
2024/04/01 05:00:23;;;;;;;0.88;0.40;;;19.20;85.40;;;;;;5031792;28;20033;-32
2024/04/01 05:02:49;;;;;;;0.82;0.50;;;19.20;85.30;;;;;;5031754;28;20097;-34
2024/04/01 05:05:17;;;;;;;1.20;0.50;;;19.20;85.40;;;;;;5031695;28;20040;-33
2024/04/01 05:07:44;;;;;;;0.82;0.40;;;19.20;85.40;;;;;;5031549;28;20022;-32
2024/04/01 05:10:11;;;;;;;2.35;0.50;;;19.20;85.40;;;;;;5031685;28;20469;-32
2024/04/01 05:12:37;;;;;;;1.30;0.40;;;19.20;85.30;;;;;;5031565;28;20105;-33
2024/04/01 05:15:05;;;;;;;1.92;0.50;;;19.20;85.40;;;;;;5031335;28;20515;-33
2024/04/01 05:17:34;;;;;;;0.88;0.40;;;19.20;85.40;;;;;;5031644;28;20021;-33
2024/04/01 05:20:00;;;;;;;0.90;0.50;;;19.20;85.30;;;;;;5031704;28;20052;-33
2024/04/01 05:22:27;;;;;;;1.15;0.47;;;19.20;85.40;;;;;;5031907;28;20052;-32
2024/04/01 05:24:53;;;;;;;0.77;0.47;;;19.20;85.30;;;;;;5031498;28;20029;-33
2024/04/01 05:27:20;;;;;;;0.82;0.30;;;19.20;85.40;;;;;;5032723;28;20024;-33
2024/04/01 05:29:57;;;;;;;1.40;0.40;;;19.20;85.40;;;;;;5035462;28;20053;-33
2024/04/01 05:32:23;;;;;;;0.55;0.30;;;19.20;85.40;;;;;;5035636;28;20021;-34
2024/04/01 05:34:51;;;;;;;1.00;0.40;;;19.20;85.40;;;;;;5035299;28;20025;-33
2024/04/01 05:37:16;;;;;;;0.50;0.30;;;19.20;85.40;;;;;;5035195;28;20083;-33
2024/04/01 05:39:42;;;;;;;1.30;0.40;;;19.20;85.40;;;;;;5035149;28;20396;-32
2024/04/01 05:42:08;;;;;;;1.75;0.43;;;19.20;85.40;;;;;;5035032;28;20029;-33
2024/04/01 05:44:33;;;;;;;0.73;0.50;;;19.20;85.50;;;;;;5035277;28;20049;-32
2024/04/01 05:46:59;;;;;;;0.80;0.50;;;19.20;85.50;;;;;;5035029;28;20379;-34
2024/04/01 05:49:24;;;;;;;0.38;0.22;;;19.20;85.50;;;;;;5034895;28;20037;-33
2024/04/01 05:51:51;;;;;;;0.68;0.30;;;19.10;85.40;;;;;;5036162;28;20064;-33
2024/04/01 05:54:17;;;;;;;1.95;0.40;;;19.20;85.50;;;;;;5036432;28;20044;-32
2024/04/01 05:56:42;;;;;;;0.50;0.20;;;19.10;85.50;;;;;;5035798;28;20392;-32
2024/04/01 05:59:08;;;;;;;1.20;0.30;;;19.10;85.50;;;;;;5035692;28;20037;-33
2024/04/01 06:01:33;;;;;;;0.70;0.40;;;19.10;85.50;;;;;;5037423;28;20499;-33
2024/04/01 06:03:59;;;;;;;0.57;0.40;;;19.10;85.60;;;;;;5035444;28;20079;-34
2024/04/01 06:06:25;;;;;;;0.80;0.30;;;19.10;85.50;;;;;;5037088;28;20032;-33
2024/04/01 06:08:51;;;;;;;2.08;0.40;;;19.10;85.50;;;;;;5035666;28;20167;-33
2024/04/01 06:11:16;;;;;;;0.60;0.40;;;19.10;85.50;;;;;;5037622;28;20107;-34
2024/04/01 06:13:44;;;;;;;1.15;0.38;;;19.10;85.50;;;;;;5035742;28;20033;-33
2024/04/01 06:16:10;;;;;;;1.05;0.30;;;19.10;85.50;;;;;;5035841;28;20033;-33
2024/04/01 06:18:35;;;;;;;0.55;0.30;;;19.10;85.60;;;;;;5036125;28;20029;-32
2024/04/01 06:21:01;;;;;;;1.50;0.45;;;19.10;85.60;;;;;;5034224;28;20025;-32
2024/04/01 06:23:27;;;;;;;1.02;0.40;;;19.10;85.60;;;;;;5035814;28;20115;-33
2024/04/01 06:25:53;;;;;;;0.85;0.35;;;19.10;85.70;;;;;;5034769;28;20045;-31
2024/04/01 06:28:18;;;;;;;1.08;0.50;;;19.10;85.70;;;;;;5035314;28;20152;-33
2024/04/01 06:30:44;;;;;;;0.80;0.30;;;19.10;85.70;;;;;;5036703;28;20448;-33
2024/04/01 06:33:10;;;;;;;0.57;0.40;;;19.10;85.70;;;;;;5036767;28;20025;-33
2024/04/01 06:35:36;;;;;;;0.50;0.32;;;19.10;85.70;;;;;;5035727;28;20120;-33
2024/04/01 06:38:01;;;;;;;0.98;0.50;;;19.10;85.70;;;;;;5034359;28;20048;-33
2024/04/01 06:40:27;;;;;;;0.73;0.40;;;19.10;85.80;;;;;;5035817;28;20104;-32
2024/04/01 06:42:53;;;;;;;0.95;0.47;;;19.10;85.70;;;;;;5035072;28;20041;-34
2024/04/01 06:45:18;;;;;;;2.55;0.68;;;19.10;85.70;;;;;;5035567;28;20104;-33
2024/04/01 06:47:47;;;;;;;0.73;0.40;;;19.10;85.80;;;;;;5035452;28;20067;-34
2024/04/01 06:50:13;;;;;;;0.45;0.20;;;19.10;85.80;;;;;;5036853;28;20473;-33
2024/04/01 06:52:38;;;;;;;0.43;0.30;;;19.10;85.80;;;;;;5036369;28;20025;-33
2024/04/01 06:55:04;;;;;;;1.40;0.50;;;19.10;85.90;;;;;;5036294;28;20029;-33
2024/04/01 06:57:30;;;;;;;0.68;0.32;;;19.10;85.90;;;;;;5034206;28;20040;-32
2024/04/01 06:59:56;;;;;;;1.33;0.40;;;19.10;85.80;;;;;;5035565;28;20030;-33
2024/04/01 07:02:22;;;;;;;1.00;0.30;;;19.10;85.80;;;;;;5035123;28;20032;-33
2024/04/01 07:04:48;;;;;;;0.38;0.25;;;19.10;85.80;;;;;;5034434;28;20033;-33
2024/04/01 07:07:14;;;;;;;0.80;0.40;;;19.10;85.80;;;;;;5035084;28;20041;-33
2024/04/01 07:09:39;;;;;;;1.75;0.40;;;19.10;85.80;;;;;;5035261;28;20030;-33
2024/04/01 07:12:05;;;;;;;0.70;0.40;;;19.10;85.80;;;;;;5035086;28;20091;-33
2024/04/01 07:14:31;;;;;;;0.85;0.30;;;19.10;85.80;;;;;;5034981;28;20057;-32
2024/04/01 07:16:57;;;;;;;1.33;0.40;;;19.10;85.80;;;;;;5034119;28;20088;-33
2024/04/01 07:19:22;;;;;;;0.63;0.32;;;19.10;85.80;;;;;;5034089;28;20033;-33
2024/04/01 07:21:48;;;;;;;0.75;0.40;;;19.10;85.80;;;;;;5035590;28;20086;-34
2024/04/01 07:24:16;;;;;;;1.67;0.35;;;19.10;85.80;;;;;;5035920;28;20492;-32
2024/04/01 07:27:01;;;;;;;0.93;0.50;;;19.10;85.80;;;;;;5033618;28;20272;-33
2024/04/01 07:29:27;;;;;;;;;;;19.10;85.80;;;;;;5035174;28;20045;-33
2024/04/01 07:31:52;;;;;;;1.67;0.43;;;19.10;85.80;;;;;;5033280;28;19955;-32
2024/04/01 07:34:18;;;;;;;0.60;0.30;;;19.10;85.90;;;;;;5033267;28;20428;-34
2024/04/01 07:36:45;;;;;;;0.95;0.47;;;19.10;85.90;;;;;;5033169;28;20060;-33
2024/04/01 07:39:11;;;;;;;1.58;0.35;;;19.10;85.90;;;;;;5033177;28;20033;-34
2024/04/01 07:41:36;;;;;;;0.70;0.30;;;19.10;85.90;;;;;;5032929;28;20033;-32
2024/04/01 07:44:02;;;;;;;0.65;0.40;;;19.10;85.90;;;;;;5032768;28;20142;-33
2024/04/01 07:46:27;;;;;;;1.05;0.30;;;19.10;85.90;;;;;;5032739;28;20029;-33
2024/04/01 07:48:53;;;;;;;0.95;0.35;;;19.10;85.90;;;;;;5032898;28;20022;-33
2024/04/01 07:51:19;;;;;;;0.30;0.22;;;19.10;85.90;;;;;;5032241;28;20044;-34
2024/04/01 07:53:44;;;;;;;1.15;0.32;;;19.10;85.90;;;;;;5032707;28;20029;-34
2024/04/01 07:56:10;;;;;;;0.88;0.52;;;19.10;85.90;;;;;;5032585;28;20388;-34
2024/04/01 07:58:36;;;;;;;0.85;0.43;;;19.10;85.80;;;;;;5032847;28;20021;-33
2024/04/01 08:01:05;;;;;;;2.10;0.30;;;19.10;85.80;;;;;;5032649;28;20036;-33
2024/04/01 08:03:31;;;;;;;0.80;0.45;;;19.10;85.80;;;;;;5032420;28;20504;-34
2024/04/01 08:05:56;;;;;;;1.08;0.40;;;19.20;85.90;;;;;;5032706;28;20108;-34
2024/04/01 08:08:22;;;;;;;0.80;0.30;;;19.10;85.80;;;;;;5032349;28;20022;-34
2024/04/01 08:10:48;;;;;;;0.52;0.32;;;19.20;85.90;;;;;;5032401;28;20029;-33
2024/04/01 08:13:14;;;;;;;0.25;0.20;;;19.20;85.80;;;;;;5032558;28;20033;-33
2024/04/01 08:15:40;;;;;;;1.27;0.45;;;19.20;85.90;;;;;;5032855;28;20042;-33
2024/04/01 08:18:05;;;;;;;0.70;0.30;;;19.20;85.90;;;;;;5032551;28;20515;-33
2024/04/01 08:20:31;;;;;;;1.05;0.20;;;19.20;85.90;;;;;;5032274;28;20481;-32
2024/04/01 08:22:57;;;;;;;0.75;0.30;;;19.20;85.90;;;;;;5032143;28;20030;-33
2024/04/01 08:25:22;;;;;;;0.80;0.45;;;19.20;85.90;;;;;;5032258;28;20017;-33
2024/04/01 08:27:51;;;;;;;0.63;0.30;;;19.20;86.20;;;;;;5032074;28;20400;-33
2024/04/01 08:30:16;;;;;;;0.52;0.25;;;19.20;85.90;;;;;;5032340;28;20029;-32
2024/04/01 08:32:42;;;;;;;0.28;0.15;;;19.10;85.80;;;;;;5032239;28;20026;-35
2024/04/01 08:35:07;;;;;;;0.75;0.30;;;19.20;86.00;;;;;;5032171;28;20029;-33
2024/04/01 08:37:33;;;;;;;0.65;0.45;;;19.20;85.90;;;;;;5032166;28;20025;-33
2024/04/01 08:39:59;;;;;;;0.38;0.22;;;19.20;86.00;;;;;;5032224;28;20032;-34
2024/04/01 08:42:26;;;;;;;0.40;0.20;;;19.20;85.90;;;;;;5031311;28;20105;-33
2024/04/01 08:44:55;;;;;;;0.60;0.47;;;19.20;86.00;;;;;;5030906;28;20136;-33
2024/04/01 08:47:24;;;;;;;0.95;0.50;;;19.20;86.00;;;;;;5030311;28;20105;-32
2024/04/01 08:50:10;;;;;;;0.57;0.20;;;19.20;86.00;;;;;;5031625;28;20033;-32
2024/04/01 08:52:53;;;;;;;0.85;0.40;;;19.20;86.00;;;;;;5029715;28;20061;-33
2024/04/01 08:55:20;;;;;;;0.40;0.30;;;19.20;85.90;;;;;;5031785;28;20046;-33
2024/04/01 08:57:47;;;;;;;0.68;0.20;;;19.20;85.90;;;;;;5031755;28;20033;-33
2024/04/01 09:00:12;;;;;;;0.63;0.30;;;19.20;85.90;;;;;;5031140;28;20557;-32
2024/04/01 09:02:39;;;;;;;0.50;0.25;;;19.20;85.80;;;;;;5035426;28;20061;-34
2024/04/01 09:05:04;;;;;;;1.00;0.25;;;19.20;85.90;;;;;;5035381;28;20083;-34
2024/04/01 09:07:30;;;;;;;0.20;0.20;;;19.20;85.80;;;;;;5034018;28;20472;-34
2024/04/01 09:09:56;;;;;;;0.32;0.20;;;19.30;85.80;;;;;;5035499;28;20025;-34
2024/04/01 09:12:22;;;;;;;0.32;0.20;;;19.30;85.80;;;;;;5035613;28;20104;-33
2024/04/01 09:14:47;;;;;;;0.52;0.20;;;19.30;85.80;;;;;;5035739;28;20021;-34
2024/04/01 09:17:22;;;;;;;0.70;0.20;;;19.30;85.80;;;;;;5035355;28;20041;-33
2024/04/01 09:19:48;;;;;;;0.73;0.30;;;19.30;85.80;;;;;;5035577;28;20116;-33
2024/04/01 09:22:13;;;;;;;0.57;0.20;;;19.30;85.80;;;;;;5035524;28;20080;-33
2024/04/01 09:24:39;;;;;;;0.57;0.20;;;19.30;85.80;;;;;;5035754;28;20065;-34
2024/04/01 09:27:05;;;;;;;1.45;0.30;;;19.30;85.70;;;;;;5035622;28;20025;-33
2024/04/01 09:29:31;;;;;;;1.02;0.20;;;19.30;85.70;;;;;;5035441;28;20025;-33
2024/04/01 09:31:57;;;;;;;0.40;0.30;;;19.30;85.70;;;;;;5035741;28;20547;-33
2024/04/01 09:34:23;;;;;;;0.25;0.15;;;19.30;85.70;;;;;;5035206;28;20069;-33
2024/04/01 09:36:48;;;;;;;0.25;0.20;;;19.30;85.70;;;;;;5035360;28;20068;-33
2024/04/01 09:39:14;;;;;;;0.30;0.20;;;19.30;85.80;;;;;;5035120;28;20477;-33
2024/04/01 09:41:39;;;;;;;0.20;0.10;;;19.30;85.70;;;;;;5035199;28;20041;-32
2024/04/01 09:44:08;;;;;;;0.40;0.30;;;19.30;85.60;;;;;;5035214;28;20372;-33
2024/04/01 09:46:33;;;;;;;0.20;0.15;;;19.30;85.60;;;;;;5034981;28;20047;-33
2024/04/01 09:48:59;;;;;;;0.40;0.20;;;19.40;85.70;;;;;;5034937;28;20486;-33
2024/04/01 09:51:27;;;;;;;1.75;0.13;;;19.30;85.60;;;;;;5034978;28;20021;-33
2024/04/01 09:53:53;;;;;;;0.95;0.20;;;19.40;85.60;;;;;;5035142;28;20025;-34
2024/04/01 09:56:47;;;;;;;0.47;0.13;;;19.40;85.50;;;;;;5035448;28;20037;-34
2024/04/01 09:59:53;;;;;;;0.33;0.30;;;19.40;85.50;;;;;;5034949;28;20090;-34
2024/04/01 10:02:21;;;;;;;0.20;0.13;;;19.40;85.50;;;;;;5035132;28;20499;-32
2024/04/01 10:04:56;;;;;;;0.30;0.20;;;19.40;85.50;;;;;;5034881;28;20029;-34
2024/04/01 10:08:12;;;;;;;0.20;0.20;;;19.40;85.40;;;;;;5035027;28;20026;-34
2024/04/01 10:10:46;;;;;;;0.10;0.10;;;19.50;85.40;;;;;;5044390;28;20030;-32
2024/04/01 10:13:31;;;;;;;0.20;0.20;;;19.50;85.40;;;;;;5034158;28;20068;-32
2024/04/01 10:16:02;;;;;;;0.45;0.25;;;19.50;85.30;;;;;;5034443;28;20053;-34
2024/04/01 10:19:05;;;;;;;0.30;0.20;;;19.50;85.30;;;;;;5034610;28;20124;-33
2024/04/01 10:21:46;;;;;;;0.50;0.25;;;19.50;85.20;;;;;;5034355;28;20022;-33
2024/04/01 10:24:27;;;;;;;0.35;0.15;;;19.50;85.20;;;;;;5034432;28;20052;-32
2024/04/01 10:26:58;;;;;;;0.05;0.05;;;19.60;85.20;;;;;;5034363;28;20091;-34
2024/04/01 10:29:27;;;;;;;0.30;0.20;;;19.60;85.10;;;;;;5034540;28;20021;-33
2024/04/01 10:31:58;;;;;;;0.20;0.20;;;19.60;85.10;;;;;;5034251;28;20022;-33
2024/04/01 10:35:13;;;;;;;0.52;0.28;;;19.60;85.00;;;;;;5034285;28;20500;-32
2024/04/01 10:38:06;;;;;;;0.32;0.20;;;19.60;84.80;;;;;;5035208;28;20036;-33
2024/04/01 10:40:56;;;;;;;0.20;0.10;;;19.70;84.90;;;;;;5034119;28;20405;-34
2024/04/01 10:43:57;;;;;;;0.15;0.10;;;19.70;84.80;;;;;;5033975;28;20392;-33
2024/04/01 10:46:40;;;;;;;0.10;0.10;;;19.70;84.70;;;;;;5034040;28;20018;-32
2024/04/01 10:49:31;;;;;;;0.40;0.13;;;19.70;84.60;;;;;;5034336;28;20100;-34
2024/04/01 10:51:56;;;;;;;0.30;0.20;;;19.70;84.50;;;;;;5035581;28;20159;-34
2024/04/01 10:54:45;;;;;;;0.00;0.00;;;19.80;84.50;;;;;;5035727;28;20493;-33
2024/04/01 10:57:21;;;;;;;0.35;0.20;;;19.80;84.50;;;;;;5033859;28;20389;-34
2024/04/01 11:00:32;;;;;;;0.43;0.20;;;19.80;84.40;;;;;;5033822;28;20033;-34
2024/04/01 11:03:35;;;;;;;0.20;0.10;;;19.80;84.30;;;;;;5033011;28;20523;-33
2024/04/01 11:06:24;;;;;;;0.20;0.10;;;19.80;84.30;;;;;;5023463;28;20540;-32
2024/04/01 11:09:23;;;;;;;0.20;0.10;;;19.80;84.20;;;;;;5028382;28;20169;-32
2024/04/01 11:12:07;;;;;;;0.10;0.10;;;19.80;84.30;;;;;;5032872;28;20033;-32
2024/04/01 11:14:35;;;;;;;1.83;0.20;;;19.80;84.20;;;;;;5033603;28;20113;-32
2024/04/01 11:17:04;;;;;;;1.67;0.13;;;19.80;84.20;;;;;;5032452;28;20037;-32
2024/04/01 11:19:29;;;;;;;0.75;0.20;;;19.80;84.20;;;;;;5032652;28;20021;-33
2024/04/01 11:21:59;;;;;;;0.30;0.15;;;19.80;84.20;;;;;;5032351;28;20045;-34
2024/04/01 11:24:28;;;;;;;0.00;0.00;;;19.80;84.10;;;;;;5031861;28;20237;-33
2024/04/01 11:26:56;;;;;;;0.17;0.17;;;19.90;84.10;;;;;;5031223;28;20021;-33
2024/04/01 11:29:50;;;;;;;0.30;0.10;;;19.80;84.00;;;;;;5032838;28;20607;-34
2024/04/01 11:32:17;;;;;;;0.28;0.20;;;19.90;84.00;;;;;;5030977;28;20068;-36
2024/04/01 11:35:27;;;;;;;0.10;0.10;;;19.90;84.00;;;;;;5032391;28;20032;-33
2024/04/01 11:38:31;;;;;;;0.17;0.17;;;19.90;84.70;;;;;;5030117;28;20041;-33
2024/04/01 11:40:59;;;;;;;0.10;0.10;;;19.90;83.90;;;;;;5031157;28;20339;-33
2024/04/01 11:43:26;;;;;;;0.08;0.08;;;19.90;83.90;;;;;;5032165;28;20484;-33
2024/04/01 11:45:53;;;;;;;0.10;0.10;;;19.90;83.80;;;;;;5031819;28;20112;-34
2024/04/01 11:48:20;;;;;;;0.15;0.10;;;19.90;83.80;;;;;;5031468;28;20045;-32
2024/04/01 11:50:57;;;;;;;0.32;0.20;;;20.00;83.90;;;;;;5031662;28;20112;-34
2024/04/01 11:53:24;;;;;;;0.20;0.13;;;20.00;83.80;;;;;;5025824;28;20464;-34
2024/04/01 11:55:58;;;;;;;0.22;0.20;;;20.00;83.70;;;;;;5031497;28;20477;-33
2024/04/01 11:58:24;;;;;;;0.43;0.30;;;20.00;83.70;;;;;;5031851;28;20515;-33
2024/04/01 12:01:03;;;;;;;0.38;0.30;;;20.00;83.60;;;;;;5032217;28;20033;-32
2024/04/01 12:03:40;;;;;;;0.68;0.22;;;20.00;83.60;;;;;;5027339;28;20025;-34
2024/04/01 12:06:07;;;;;;;0.32;0.30;;;20.00;83.50;;;;;;5029393;28;20072;-32
2024/04/01 12:08:35;;;;;;;0.17;0.17;;;20.10;83.60;;;;;;5030550;28;20531;-31
2024/04/01 12:11:05;;;;;;;0.65;0.28;;;20.10;83.50;;;;;;5031506;28;20079;-33
2024/04/01 12:13:31;;;;;;;0.20;0.10;;;20.10;83.50;;;;;;5031031;28;20032;-36
2024/04/01 12:16:00;;;;;;;0.20;0.17;;;20.10;83.40;;;;;;5031295;28;20026;-33
2024/04/01 12:18:26;;;;;;;0.38;0.22;;;20.10;83.40;;;;;;5031267;28;21517;-33
2024/04/01 12:20:53;;;;;;;0.55;0.25;;;20.10;83.20;;;;;;5030789;28;20037;-34
2024/04/01 12:23:24;;;;;;;0.38;0.20;;;20.10;83.10;;;;;;5031037;28;20494;-32
2024/04/01 12:25:50;;;;;;;0.30;0.17;;;20.20;83.10;;;;;;5030524;28;20029;-34
2024/04/01 12:28:17;;;;;;;0.20;0.20;;;20.20;83.10;;;;;;5030683;28;20025;-33
2024/04/01 12:30:49;;;;;;;0.30;0.20;;;20.20;83.10;;;;;;5030048;28;20025;-32
2024/04/01 12:33:16;;;;;;;0.10;0.10;;;20.30;83.10;;;;;;5030368;28;20036;-34
2024/04/01 12:35:41;;;;;;;0.30;0.20;;;20.20;83.00;;;;;;5030242;28;20516;-34
2024/04/01 12:38:13;;;;;;;0.30;0.25;;;20.30;82.90;;;;;;5030979;28;20041;-34
2024/04/01 12:40:43;;;;;;;0.25;0.20;;;20.30;82.80;;;;;;5031072;28;20025;-33
2024/04/01 12:43:14;;;;;;;0.30;0.10;;;20.30;82.70;;;;;;5030461;28;20439;-33
2024/04/01 12:45:45;;;;;;;0.22;0.20;;;20.40;82.80;;;;;;5030810;28;20021;-34
2024/04/01 12:48:15;;;;;;;0.13;0.13;;;20.40;82.70;;;;;;5030388;28;20026;-33
2024/04/01 12:50:52;;;;;;;0.20;0.20;;;20.40;82.60;;;;;;5028484;28;20435;-33
2024/04/01 12:53:55;;;;;;;0.20;0.20;;;20.40;82.60;;;;;;5030438;28;20496;-32
2024/04/01 12:56:42;;;;;;;0.10;0.10;;;20.50;82.50;;;;;;5024158;28;20075;-33
2024/04/01 12:59:27;;;;;;;0.30;0.20;;;20.50;82.50;;;;;;5030437;28;20018;-33